Time;durP1;ratioP1;P1;durP2;ratioP2;P2;SDS_P1;SDS_P2;PMS_P1;PMS_P2;Temp;Humidity;BMP_temperature;BMP_pressure;BME280_temperature;BME280_humidity;BME280_pressure;Samples;Min_cycle;Max_cycle;Signal;HPM_P1;HPM_P2
2021/06/24 00:01:50;;;;;;;0.00;0.00;;;;;;;25.36;67.24;99088.22;5094644;28;20027;-78
2021/06/24 00:04:15;;;;;;;0.00;0.00;;;;;;;25.35;66.90;99075.69;5090727;28;20381;-78
2021/06/24 00:06:41;;;;;;;0.00;0.00;;;;;;;25.36;67.05;99078.03;5097463;28;20028;-78
2021/06/24 00:09:07;;;;;;;0.00;0.00;;;;;;;25.34;66.99;99074.91;5092917;28;20032;-77
2021/06/24 00:11:32;;;;;;;0.00;0.00;;;;;;;25.36;67.08;99071.78;5078874;28;20118;-78
2021/06/24 00:13:58;;;;;;;0.20;0.20;;;;;;;25.34;67.10;99079.59;5095659;28;20020;-78
2021/06/24 00:16:24;;;;;;;0.05;0.05;;;;;;;25.35;67.17;99075.69;5085149;28;20386;-77
2021/06/24 00:18:50;;;;;;;0.00;0.00;;;;;;;25.31;67.62;99072.91;5083610;28;20150;-77
2021/06/24 00:21:16;;;;;;;0.00;0.00;;;;;;;25.27;67.25;99072.09;5068398;28;20115;-77
2021/06/24 00:23:41;;;;;;;0.30;0.30;;;;;;;25.26;67.21;99076.00;5080569;28;20028;-78
2021/06/24 00:26:06;;;;;;;0.03;0.03;;;;;;;25.21;67.29;99068.13;5087719;28;20502;-78
2021/06/24 00:28:32;;;;;;;0.17;0.17;;;;;;;25.09;67.18;99074.63;5063290;28;20036;-77
2021/06/24 00:30:58;;;;;;;0.10;0.10;;;;;;;25.04;67.18;99077.69;5077322;28;20062;-78
2021/06/24 00:33:23;;;;;;;0.00;0.00;;;;;;;24.98;67.62;99073.72;5091014;28;20028;-80
2021/06/24 00:35:49;;;;;;;0.00;0.00;;;;;;;24.94;67.72;99071.72;5093139;28;20028;-77
2021/06/24 00:38:15;;;;;;;0.10;0.10;;;;;;;24.93;67.66;99063.91;5093722;28;20042;-77
2021/06/24 00:40:42;;;;;;;0.00;0.00;;;;;;;24.95;67.90;99080.72;5065440;28;20028;-76
2021/06/24 00:43:10;;;;;;;0.00;0.00;;;;;;;24.98;67.83;99071.00;5083707;28;20036;-76
2021/06/24 00:45:36;;;;;;;0.10;0.10;;;;;;;25.00;67.88;99076.84;5089518;28;20065;-76
2021/06/24 00:48:03;;;;;;;0.00;0.00;;;;;;;25.02;67.83;99074.53;5096239;28;20395;-76
2021/06/24 00:50:29;;;;;;;0.00;0.00;;;;;;;25.05;67.57;99073.81;5094472;28;20532;-76
2021/06/24 00:52:54;;;;;;;0.00;0.00;;;;;;;25.04;67.30;99064.03;5081712;28;20033;-76
2021/06/24 00:55:39;;;;;;;0.00;0.00;;;;;;;25.09;67.64;99059.00;5085333;28;20020;-78
2021/06/24 00:58:26;;;;;;;0.00;0.00;;;;;;;25.14;67.55;99062.56;5080310;28;20035;-78
2021/06/24 01:00:54;;;;;;;0.05;0.05;;;;;;;25.17;68.00;99061.81;5084102;28;20039;-77
2021/06/24 01:03:20;;;;;;;0.08;0.08;;;;;;;25.19;68.00;99064.97;5073533;28;20058;-77
2021/06/24 01:05:47;;;;;;;0.00;0.00;;;;;;;25.19;67.70;99056.75;5088284;28;20520;-77
2021/06/24 01:08:16;;;;;;;0.30;0.30;;;;;;;25.22;67.89;99062.28;5092978;28;20479;-78
2021/06/24 01:10:44;;;;;;;0.00;0.00;;;;;;;25.22;67.74;99056.03;5093822;28;20054;-79
2021/06/24 01:13:11;;;;;;;0.00;0.00;;;;;;;25.23;67.30;99052.91;5078894;28;20032;-78
2021/06/24 01:15:36;;;;;;;0.00;0.00;;;;;;;25.24;67.65;99046.28;5056151;28;20537;-80
2021/06/24 01:18:02;;;;;;;0.00;0.00;;;;;;;25.26;67.72;99043.16;5087929;28;20032;-78
2021/06/24 01:20:32;;;;;;;0.10;0.10;;;;;;;25.27;67.90;99039.25;5073767;28;20077;-76
2021/06/24 01:22:58;;;;;;;0.00;0.00;;;;;;;25.24;68.05;99029.84;5073282;28;20035;-77
2021/06/24 01:25:24;;;;;;;0.00;0.00;;;;;;;25.31;67.89;99044.78;5073051;28;20063;-77
2021/06/24 01:27:58;;;;;;;0.00;0.00;;;;;;;25.31;67.54;99040.06;5073645;28;20021;-76
2021/06/24 01:30:24;;;;;;;0.00;0.00;;;;;;;25.30;67.56;99040.44;5088032;28;20035;-77
2021/06/24 01:32:50;;;;;;;0.00;0.00;;;;;;;25.29;67.31;99039.66;5060228;28;20028;-77
2021/06/24 01:35:23;;;;;;;0.00;0.00;;;;;;;25.28;67.52;99034.56;5082396;28;20024;-76
2021/06/24 01:37:49;;;;;;;0.00;0.00;;;;;;;25.25;67.34;99042.38;5073039;28;20035;-75
2021/06/24 01:40:16;;;;;;;0.00;0.00;;;;;;;25.18;66.79;99042.28;5073140;28;20161;-80
2021/06/24 01:42:41;;;;;;;0.08;0.08;;;;;;;25.18;67.17;99038.75;5092978;28;20108;-76
2021/06/24 01:45:09;;;;;;;0.00;0.00;;;;;;;25.15;66.87;99040.28;5072946;28;20480;-75
2021/06/24 01:47:35;;;;;;;0.00;0.00;;;;;;;25.10;66.97;99033.22;5083269;28;20092;-76
2021/06/24 01:50:00;;;;;;;0.00;0.00;;;;;;;25.08;67.28;99046.50;5072351;28;20067;-76
2021/06/24 01:52:26;;;;;;;0.20;0.20;;;;;;;25.03;67.60;99035.09;5074112;28;20033;-77
2021/06/24 01:54:51;;;;;;;0.00;0.00;;;;;;;25.00;67.28;99035.81;5088191;28;20499;-76
2021/06/24 01:57:17;;;;;;;0.00;0.00;;;;;;;24.97;67.35;99028.38;5090581;28;20089;-76
2021/06/24 01:59:46;;;;;;;0.00;0.00;;;;;;;24.94;67.88;99027.19;5091013;28;20043;-77
2021/06/24 02:02:12;;;;;;;0.10;0.10;;;;;;;24.93;67.66;99023.63;5088570;28;20482;-76
2021/06/24 02:04:37;;;;;;;0.00;0.00;;;;;;;24.91;67.88;99017.78;5075093;28;20039;-76
2021/06/24 02:07:03;;;;;;;0.00;0.00;;;;;;;24.89;67.88;99017.34;5087509;28;20020;-76
2021/06/24 02:09:28;;;;;;;0.00;0.00;;;;;;;24.89;67.88;99020.09;5084430;28;20391;-75
2021/06/24 02:11:56;;;;;;;0.00;0.00;;;;;;;24.90;67.90;99023.59;5078960;28;20107;-76
2021/06/24 02:14:21;;;;;;;0.00;0.00;;;;;;;24.87;68.00;99027.88;5071981;28;20025;-76
2021/06/24 02:16:47;;;;;;;0.00;0.00;;;;;;;24.88;68.21;99031.41;5076524;28;20025;-75
2021/06/24 02:19:12;;;;;;;0.00;0.00;;;;;;;24.87;67.93;99030.59;5080259;28;20063;-76
2021/06/24 02:21:38;;;;;;;0.10;0.10;;;;;;;24.88;68.36;99031.41;5072078;28;20036;-75
2021/06/24 02:24:04;;;;;;;0.00;0.00;;;;;;;24.82;68.44;99030.16;5083735;28;20059;-76
2021/06/24 02:26:29;;;;;;;0.00;0.00;;;;;;;24.78;68.39;99028.16;5077958;28;20055;-77
2021/06/24 02:28:54;;;;;;;0.10;0.10;;;;;;;24.76;68.64;99014.06;5091956;28;20063;-77
2021/06/24 02:31:20;;;;;;;0.00;0.00;;;;;;;24.73;68.60;99006.63;5081774;28;20082;-77
2021/06/24 02:33:47;;;;;;;0.03;0.03;;;;;;;24.75;67.95;99012.47;5072912;28;20020;-78
2021/06/24 02:36:12;;;;;;;0.10;0.10;;;;;;;24.73;67.91;99020.28;5088739;28;20099;-78
2021/06/24 02:38:38;;;;;;;0.00;0.00;;;;;;;24.70;68.12;99026.50;5092111;28;20119;-77
2021/06/24 02:41:03;;;;;;;0.00;0.00;;;;;;;24.70;68.09;99026.50;5083099;28;20392;-76
2021/06/24 02:43:29;;;;;;;0.05;0.05;;;;;;;24.69;67.92;99011.25;5080312;28;20065;-75
2021/06/24 02:45:54;;;;;;;0.13;0.13;;;;;;;24.67;67.81;99012.78;5083400;28;20240;-74
2021/06/24 02:48:20;;;;;;;0.00;0.00;;;;;;;24.66;67.63;99020.19;5089268;28;20056;-75
2021/06/24 02:50:46;;;;;;;0.00;0.00;;;;;;;24.64;68.05;99016.25;5073168;28;20078;-75
2021/06/24 02:53:11;;;;;;;0.00;0.00;;;;;;;24.64;68.06;99022.47;5086412;28;20097;-75
2021/06/24 02:55:37;;;;;;;0.00;0.00;;;;;;;24.61;67.54;99017.78;5073513;28;20423;-77
2021/06/24 02:58:02;;;;;;;0.00;0.00;;;;;;;24.58;67.23;99016.56;5080105;28;20064;-75
2021/06/24 03:00:28;;;;;;;0.00;0.00;;;;;;;24.56;67.39;99009.88;5089307;28;20024;-75
2021/06/24 03:02:54;;;;;;;0.10;0.10;;;;;;;24.57;67.76;99025.13;5091513;28;20552;-75
2021/06/24 03:05:20;;;;;;;0.00;0.00;;;;;;;24.57;67.58;99015.00;5072239;28;20142;-75
2021/06/24 03:07:45;;;;;;;0.17;0.17;;;;;;;24.57;67.66;99011.44;5077001;28;20109;-75
2021/06/24 03:10:11;;;;;;;0.00;0.00;;;;;;;24.57;67.36;99015.00;5083904;28;20097;-75
2021/06/24 03:12:37;;;;;;;0.00;0.00;;;;;;;24.62;67.52;99008.41;5087193;28;20097;-75
2021/06/24 03:15:05;;;;;;;0.00;0.00;;;;;;;24.65;67.38;99010.38;5085759;28;20479;-75
2021/06/24 03:17:30;;;;;;;0.00;0.00;;;;;;;24.71;67.30;99002.69;5072009;28;20032;-75
2021/06/24 03:19:56;;;;;;;0.00;0.00;;;;;;;24.74;67.29;99004.66;5075602;28;20042;-74
2021/06/24 03:22:22;;;;;;;0.00;0.00;;;;;;;24.79;67.11;99001.59;5070722;28;20032;-76
2021/06/24 03:24:47;;;;;;;0.00;0.00;;;;;;;24.84;66.92;98995.81;5082903;28;20048;-75
2021/06/24 03:27:13;;;;;;;0.00;0.00;;;;;;;24.92;66.63;99002.13;5091023;28;20495;-75
2021/06/24 03:29:39;;;;;;;0.00;0.00;;;;;;;25.07;66.90;99006.59;5076280;28;20131;-75
2021/06/24 03:32:04;;;;;;;0.00;0.00;;;;;;;25.20;66.58;98998.91;5071164;28;20025;-77
2021/06/24 03:34:30;;;;;;;0.00;0.00;;;;;;;25.41;65.90;99012.06;5076379;28;20410;-75
2021/06/24 03:36:55;;;;;;;0.00;0.00;;;;;;;25.64;65.01;99007.53;5089637;28;20036;-76
2021/06/24 03:39:21;;;;;;;0.00;0.00;;;;;;;25.84;64.64;99010.81;5074207;28;20442;-76
2021/06/24 03:41:46;;;;;;;0.00;0.00;;;;;;;26.04;63.61;99017.63;5078389;28;20020;-77
2021/06/24 03:44:12;;;;;;;0.00;0.00;;;;;;;26.30;63.32;99013.09;5089215;28;20036;-75
2021/06/24 03:46:37;;;;;;;0.00;0.00;;;;;;;26.54;62.33;99016.38;5069416;28;20039;-76
2021/06/24 03:49:03;;;;;;;0.00;0.00;;;;;;;26.86;61.40;99023.97;5076865;28;20688;-74
2021/06/24 03:51:28;;;;;;;0.00;0.00;;;;;;;27.19;60.60;99035.03;5090111;28;20113;-75
2021/06/24 03:53:54;;;;;;;0.17;0.17;;;;;;;27.54;59.14;99031.59;5090580;28;20471;-75
2021/06/24 03:56:19;;;;;;;0.00;0.00;;;;;;;27.87;57.78;99026.88;5078425;28;20422;-75
2021/06/24 03:58:45;;;;;;;0.00;0.00;;;;;;;28.20;56.71;99037.88;5079955;28;20036;-75
2021/06/24 04:01:10;;;;;;;0.00;0.00;;;;;;;28.51;55.68;99041.69;5082200;28;20024;-74
2021/06/24 04:03:36;;;;;;;0.00;0.00;;;;;;;28.84;54.73;99036.13;5073003;28;20043;-75
2021/06/24 04:06:01;;;;;;;0.00;0.00;;;;;;;29.22;53.85;99039.03;5088724;28;20491;-75
2021/06/24 04:08:27;;;;;;;0.00;0.00;;;;;;;29.48;52.81;99040.50;5074411;28;20033;-75
2021/06/24 04:10:52;;;;;;;0.00;0.00;;;;;;;29.62;52.32;99036.84;5078689;28;20406;-75
2021/06/24 04:13:18;;;;;;;0.00;0.00;;;;;;;29.74;52.41;99041.06;5070527;28;20025;-76
2021/06/24 04:15:43;;;;;;;0.20;0.20;;;;;;;29.83;51.53;99040.59;5070833;28;20078;-74
2021/06/24 04:18:09;;;;;;;0.00;0.00;;;;;;;29.90;51.54;99035.06;5070196;28;20021;-74
2021/06/24 04:20:35;;;;;;;0.00;0.00;;;;;;;30.03;51.64;99038.09;5053991;28;20077;-77
2021/06/24 04:23:01;;;;;;;0.25;0.25;;;;;;;30.19;51.72;99038.31;5052644;28;20123;-75
2021/06/24 04:25:27;;;;;;;0.00;0.00;;;;;;;30.48;51.55;99053.78;5071025;28;20618;-76
2021/06/24 04:27:53;;;;;;;0.00;0.00;;;;;;;30.80;50.87;99045.16;5074555;28;20103;-74
2021/06/24 04:30:20;;;;;;;0.08;0.08;;;;;;;31.12;49.96;99052.25;5073636;28;20495;-74
2021/06/24 04:32:46;;;;;;;0.00;0.00;;;;;;;31.49;48.76;99052.50;5077519;28;20039;-74
2021/06/24 04:35:12;;;;;;;0.05;0.05;;;;;;;31.89;47.64;99051.91;5073863;28;20025;-74
2021/06/24 04:37:38;;;;;;;0.05;0.05;;;;;;;32.29;46.86;99054.78;5079754;28;20486;-74
2021/06/24 04:40:05;;;;;;;0.00;0.00;;;;;;;32.67;45.62;99040.56;5091009;28;20045;-74
2021/06/24 04:42:31;;;;;;;0.00;0.00;;;;;;;33.08;44.29;99038.56;5075623;28;20047;-74
2021/06/24 04:44:56;;;;;;;0.00;0.00;;;;;;;33.36;43.83;99044.69;5073820;28;20024;-74
2021/06/24 04:47:22;;;;;;;0.10;0.10;;;;;;;33.64;43.08;99042.44;5073196;28;20029;-74
2021/06/24 04:49:47;;;;;;;0.00;0.00;;;;;;;33.84;42.37;99048.69;5073843;28;20082;-74
2021/06/24 04:52:15;;;;;;;0.10;0.10;;;;;;;34.03;41.45;99048.22;5074052;28;20044;-74
2021/06/24 04:54:40;;;;;;;0.00;0.00;;;;;;;34.21;41.31;99048.53;5073494;28;20111;-74
2021/06/24 04:57:06;;;;;;;0.17;0.17;;;;;;;34.37;41.01;99058.06;5055465;28;20089;-74
2021/06/24 04:59:31;;;;;;;0.20;0.20;;;;;;;34.65;40.27;99064.81;5073371;28;20036;-74
2021/06/24 05:01:57;;;;;;;0.47;0.47;;;;;;;34.86;39.06;99068.94;5055376;28;20028;-75
2021/06/24 05:04:22;;;;;;;0.43;0.43;;;;;;;34.56;39.59;99073.78;5073204;28;20021;-74
2021/06/24 05:06:53;;;;;;;0.10;0.10;;;;;;;34.51;38.93;99057.66;5073450;28;20444;-74
2021/06/24 05:09:25;;;;;;;0.82;0.82;;;;;;;34.57;39.12;99067.00;5073019;28;20103;-74
2021/06/24 05:11:50;;;;;;;0.20;0.10;;;;;;;34.62;38.72;99060.91;5073258;28;20032;-74
2021/06/24 05:14:16;;;;;;;0.00;0.00;;;;;;;34.60;38.58;99071.66;5073019;28;20020;-74
2021/06/24 05:16:42;;;;;;;0.00;0.00;;;;;;;34.68;39.03;99071.47;5073366;28;20453;-75
2021/06/24 05:19:08;;;;;;;0.10;0.10;;;;;;;34.78;39.47;99071.16;5073272;28;20545;-74
2021/06/24 05:21:33;;;;;;;0.00;0.00;;;;;;;34.98;38.80;99073.00;5072963;28;20071;-75
2021/06/24 05:23:59;;;;;;;0.00;0.00;;;;;;;35.01;38.23;99074.91;5073147;28;20052;-75
2021/06/24 05:26:24;;;;;;;0.10;0.10;;;;;;;34.86;39.38;99080.06;5072419;28;20049;-75
2021/06/24 05:28:50;;;;;;;0.00;0.00;;;;;;;34.57;39.60;99077.31;5072930;28;20028;-74
2021/06/24 05:31:15;;;;;;;0.47;0.47;;;;;;;34.29;39.55;99083.19;5072387;28;20039;-74
2021/06/24 05:33:41;;;;;;;0.20;0.20;;;;;;;34.02;40.93;99096.59;5072929;28;20024;-74
2021/06/24 05:36:06;;;;;;;0.10;0.10;;;;;;;33.83;41.54;99097.06;5072264;28;20028;-74
2021/06/24 05:38:32;;;;;;;0.77;0.73;;;;;;;33.74;41.21;99098.84;5072669;28;20445;-75
2021/06/24 05:40:58;;;;;;;0.70;0.70;;;;;;;33.64;41.38;99095.91;5072557;28;20032;-75
2021/06/24 05:43:23;;;;;;;0.00;0.00;;;;;;;33.58;41.69;99102.38;5072563;28;20020;-75
2021/06/24 05:45:49;;;;;;;0.00;0.00;;;;;;;33.50;41.61;99102.56;5072684;28;20032;-74
2021/06/24 05:48:14;;;;;;;0.25;0.25;;;;;;;33.44;41.88;99098.75;5072244;28;20031;-75
2021/06/24 05:50:40;;;;;;;0.50;0.50;;;;;;;33.25;41.86;99100.34;5072432;28;20025;-74
2021/06/24 05:53:06;;;;;;;0.17;0.17;;;;;;;33.11;42.61;99106.19;5072583;28;20395;-74
2021/06/24 05:58:24;;;;;;;0.00;0.00;;;;;;;32.78;42.23;99100.53;5072541;28;20087;-74
2021/06/24 06:00:53;;;;;;;0.10;0.10;;;;;;;32.64;43.05;99094.06;5072318;28;20033;-75
2021/06/24 06:03:20;;;;;;;0.10;0.10;;;;;;;32.53;43.36;99099.00;5072045;28;20024;-74
2021/06/24 06:05:45;;;;;;;;;;;;;;;32.42;44.44;99101.97;5072645;28;20032;-75
2021/06/24 06:08:11;;;;;;;0.10;0.10;;;;;;;32.29;44.82;99101.00;5072353;28;20302;-74
2021/06/24 06:10:38;;;;;;;0.00;0.00;;;;;;;32.30;45.24;99094.28;5072108;28;20373;-75
2021/06/24 06:13:05;;;;;;;0.00;0.00;;;;;;;32.46;45.45;99099.94;5072300;28;20020;-75
2021/06/24 06:15:35;;;;;;;0.00;0.00;;;;;;;32.71;44.85;99093.13;5072005;28;20021;-76
2021/06/24 06:18:00;;;;;;;0.20;0.20;;;;;;;33.09;44.08;99109.38;5072155;28;20486;-75
2021/06/24 06:20:26;;;;;;;0.00;0.00;;;;;;;33.50;42.83;99104.56;5071784;28;20052;-75
2021/06/24 06:22:51;;;;;;;0.08;0.08;;;;;;;33.96;41.89;99110.22;5072045;28;20020;-75
2021/06/24 06:25:17;;;;;;;0.00;0.00;;;;;;;34.24;41.58;99102.38;5071892;28;20510;-75
2021/06/24 06:27:42;;;;;;;0.00;0.00;;;;;;;34.44;39.90;99097.50;5071377;28;20505;-75
2021/06/24 06:30:09;;;;;;;0.20;0.20;;;;;;;34.74;40.00;99097.47;5071881;28;20032;-75
2021/06/24 06:32:35;;;;;;;0.20;0.20;;;;;;;35.03;39.35;99105.78;5071655;28;20039;-75
2021/06/24 06:35:00;;;;;;;0.05;0.05;;;;;;;35.31;38.68;99088.72;5071768;28;20020;-75
2021/06/24 06:37:25;;;;;;;0.05;0.05;;;;;;;35.59;38.03;99095.38;5071486;28;20451;-75
2021/06/24 06:39:51;;;;;;;0.00;0.00;;;;;;;35.84;37.48;99096.56;5053695;28;20039;-75
2021/06/24 06:42:16;;;;;;;0.00;0.00;;;;;;;36.09;37.40;99103.34;5071694;28;20025;-75
2021/06/24 06:44:42;;;;;;;0.10;0.10;;;;;;;36.25;36.12;99110.75;5071142;28;20028;-75
2021/06/24 06:47:07;;;;;;;0.00;0.00;;;;;;;36.29;36.53;99103.03;5071547;28;20031;-75
2021/06/24 06:49:33;;;;;;;0.10;0.10;;;;;;;36.28;36.38;99101.47;5070622;28;20024;-75
2021/06/24 06:51:58;;;;;;;0.22;0.22;;;;;;;36.27;36.34;99106.28;5071303;28;20559;-75
2021/06/24 06:54:24;;;;;;;0.10;0.10;;;;;;;36.25;35.69;99097.59;5071013;28;20024;-75
2021/06/24 06:56:49;;;;;;;0.00;0.00;;;;;;;36.21;36.02;99096.97;5071253;28;20028;-75
2021/06/24 06:59:14;;;;;;;0.00;0.00;;;;;;;36.08;36.31;99105.34;5070175;28;20028;-75
2021/06/24 07:01:40;;;;;;;0.00;0.00;;;;;;;35.88;37.09;99109.16;5070829;28;20086;-75
2021/06/24 07:04:06;;;;;;;0.75;0.73;;;;;;;35.71;37.39;99105.72;5070907;28;20483;-75
2021/06/24 07:06:32;;;;;;;0.10;0.10;;;;;;;35.58;37.22;99102.16;5071024;28;20037;-74
2021/06/24 07:08:58;;;;;;;0.10;0.10;;;;;;;35.35;38.27;99098.50;5070943;28;20032;-74
2021/06/24 07:11:24;;;;;;;0.00;0.00;;;;;;;35.30;38.10;99099.03;5070697;28;20036;-75
2021/06/24 07:13:50;;;;;;;0.00;0.00;;;;;;;35.23;37.96;99102.81;5071226;28;20082;-75
2021/06/24 07:16:16;;;;;;;0.25;0.25;;;;;;;35.07;37.73;99100.91;5071147;28;20410;-75
2021/06/24 07:18:42;;;;;;;0.13;0.13;;;;;;;35.05;38.66;99113.72;5071033;28;20490;-74
2021/06/24 07:21:07;;;;;;;0.40;0.40;;;;;;;35.04;38.21;99106.59;5071012;28;20025;-75
2021/06/24 07:23:33;;;;;;;0.00;0.00;;;;;;;35.01;39.06;99107.47;5070901;28;20035;-74
2021/06/24 07:25:58;;;;;;;0.20;0.20;;;;;;;34.99;38.44;99101.59;5070681;28;20053;-74
2021/06/24 07:28:24;;;;;;;0.10;0.10;;;;;;;35.00;37.93;99105.91;5070459;28;20032;-74
2021/06/24 07:30:50;;;;;;;0.22;0.22;;;;;;;35.06;38.53;99109.72;5053090;28;20055;-73
2021/06/24 07:33:16;;;;;;;0.00;0.00;;;;;;;35.15;38.14;99101.47;5071024;28;20549;-74
2021/06/24 07:35:42;;;;;;;0.00;0.00;;;;;;;35.08;37.98;99105.25;5070655;28;20509;-73
2021/06/24 07:38:07;;;;;;;0.10;0.10;;;;;;;34.70;37.89;99111.47;5070901;28;20050;-73
2021/06/24 07:40:33;;;;;;;0.80;0.80;;;;;;;34.47;37.67;99104.16;5070637;28;20528;-73
2021/06/24 07:42:59;;;;;;;0.00;0.00;;;;;;;34.39;37.90;99097.28;5070602;28;20025;-73
2021/06/24 07:45:26;;;;;;;0.10;0.10;;;;;;;34.37;38.24;99110.81;5070544;28;20439;-73
2021/06/24 07:47:51;;;;;;;0.20;0.20;;;;;;;34.25;37.70;99109.50;5070472;28;20063;-74
2021/06/24 07:50:17;;;;;;;0.00;0.00;;;;;;;34.11;38.78;99114.19;5069955;28;20056;-74
2021/06/24 07:52:42;;;;;;;0.20;0.20;;;;;;;34.06;38.63;99114.72;5070216;28;20033;-73
2021/06/24 07:55:08;;;;;;;0.90;0.90;;;;;;;33.94;39.21;99109.88;5070677;28;20021;-73
2021/06/24 07:57:34;;;;;;;0.45;0.45;;;;;;;33.76;39.08;99108.28;5070627;28;20033;-73
2021/06/24 08:00:00;;;;;;;0.15;0.15;;;;;;;33.71;39.72;99106.03;5072257;28;20468;-73
2021/06/24 08:02:25;;;;;;;0.13;0.13;;;;;;;33.59;38.62;99101.19;5074255;28;20028;-73
2021/06/24 08:04:50;;;;;;;0.43;0.43;;;;;;;33.52;40.39;99111.22;5074734;28;20455;-73
2021/06/24 08:07:16;;;;;;;0.20;0.20;;;;;;;33.44;39.50;99104.28;5074658;28;20025;-75
2021/06/24 08:09:42;;;;;;;0.30;0.30;;;;;;;33.39;40.54;99106.81;5074469;28;20530;-73
2021/06/24 08:12:08;;;;;;;3.03;1.13;;;;;;;33.31;40.18;99108.94;5074586;28;20033;-72
2021/06/24 08:14:33;;;;;;;0.38;0.38;;;;;;;33.19;40.16;99111.16;5073912;28;20021;-73
2021/06/24 08:16:59;;;;;;;0.08;0.08;;;;;;;33.15;40.79;99106.88;5074474;28;20636;-73
2021/06/24 08:19:24;;;;;;;0.10;0.10;;;;;;;33.04;41.08;99109.88;5074474;28;20115;-75
2021/06/24 08:21:52;;;;;;;0.10;0.10;;;;;;;32.94;40.53;99108.91;5074326;28;20036;-74
2021/06/24 08:24:18;;;;;;;0.30;0.30;;;;;;;32.88;42.29;99113.38;5073996;28;20434;-74
2021/06/24 08:26:43;;;;;;;0.57;0.57;;;;;;;32.95;42.31;99102.16;5074095;28;20024;-73
2021/06/24 08:29:09;;;;;;;0.30;0.30;;;;;;;33.01;42.12;99110.75;5074129;28;20025;-73
2021/06/24 08:31:35;;;;;;;0.25;0.20;;;;;;;33.08;41.21;99093.97;5073975;28;20029;-73
2021/06/24 08:34:01;;;;;;;0.00;0.00;;;;;;;33.15;41.66;99091.03;5074144;28;20032;-73
2021/06/24 08:36:27;;;;;;;1.05;0.77;;;;;;;33.25;40.36;99083.72;5072490;28;20021;-73
2021/06/24 08:38:52;;;;;;;0.17;0.17;;;;;;;33.27;40.03;99089.59;5056049;28;20082;-73
2021/06/24 08:41:19;;;;;;;0.10;0.10;;;;;;;33.22;39.27;99090.09;5073588;28;20024;-74
2021/06/24 08:43:45;;;;;;;0.43;0.43;;;;;;;33.13;39.96;99085.16;5073717;28;20032;-73
2021/06/24 08:46:12;;;;;;;0.10;0.10;;;;;;;33.07;40.28;99080.53;5073865;28;20447;-74
2021/06/24 08:48:38;;;;;;;0.05;0.05;;;;;;;32.99;40.31;99085.47;5073599;28;20551;-73
2021/06/24 08:51:05;;;;;;;0.20;0.20;;;;;;;32.95;41.47;99087.53;5073526;28;20056;-73
2021/06/24 08:53:32;;;;;;;0.10;0.10;;;;;;;32.96;39.74;99081.56;5073602;28;20036;-75
2021/06/24 08:55:58;;;;;;;0.70;0.70;;;;;;;32.98;41.71;99078.34;5073689;28;20024;-73
2021/06/24 08:58:24;;;;;;;0.00;0.00;;;;;;;33.05;41.54;99089.28;5073756;28;20491;-73
2021/06/24 09:00:51;;;;;;;0.55;0.55;;;;;;;33.17;40.74;99079.53;5073319;28;20029;-73
2021/06/24 09:03:19;;;;;;;0.00;0.00;;;;;;;33.16;39.99;99083.50;5073539;28;20032;-75
2021/06/24 09:05:53;;;;;;;0.10;0.10;;;;;;;33.15;39.95;99084.72;5073341;28;20028;-75
2021/06/24 09:08:25;;;;;;;1.02;0.30;;;;;;;33.25;40.40;99078.16;5073527;28;20036;-74
2021/06/24 09:11:28;;;;;;;0.73;0.30;;;;;;;33.35;39.94;99076.41;5072674;28;20549;-74
2021/06/24 09:14:01;;;;;;;1.88;1.20;;;;;;;33.47;40.32;99069.38;5011020;28;20121;-74
2021/06/24 09:16:36;;;;;;;0.10;0.10;;;;;;;33.58;38.94;99072.69;5064181;28;20046;-74
2021/06/24 09:19:21;;;;;;;1.35;1.13;;;;;;;33.55;39.29;99070.00;5073125;28;20565;-74
2021/06/24 09:21:57;;;;;;;0.05;0.05;;;;;;;33.55;38.49;99072.78;5072844;28;20391;-74
2021/06/24 09:24:26;;;;;;;4.70;2.13;;;;;;;33.50;38.26;99068.53;5073100;28;20071;-75
2021/06/24 09:26:52;;;;;;;0.55;0.55;;;;;;;33.50;39.25;99069.28;5072994;28;20025;-74
2021/06/24 09:29:18;;;;;;;0.22;0.22;;;;;;;33.51;38.19;99070.84;5072774;28;20044;-75
2021/06/24 09:31:48;;;;;;;0.30;0.30;;;;;;;33.47;39.13;99069.38;5072543;28;20381;-74
2021/06/24 09:34:15;;;;;;;0.05;0.05;;;;;;;33.47;39.99;99069.38;5073298;28;20032;-74
2021/06/24 09:36:42;;;;;;;0.17;0.17;;;;;;;33.50;39.52;99060.19;5072799;28;20032;-74
2021/06/24 09:39:21;;;;;;;0.85;0.30;;;;;;;33.51;39.53;99059.00;5072638;28;20510;-74
2021/06/24 09:42:04;;;;;;;0.10;0.10;;;;;;;33.54;38.96;99055.34;5072590;28;20059;-74
2021/06/24 09:44:31;;;;;;;0.40;0.40;;;;;;;33.64;38.12;99065.41;5072797;28;20028;-74
2021/06/24 09:46:58;;;;;;;0.20;0.20;;;;;;;33.72;38.48;99060.47;5072732;28;20494;-74
2021/06/24 09:49:34;;;;;;;0.20;0.20;;;;;;;33.76;38.71;99055.59;5072512;28;20510;-74
2021/06/24 09:52:02;;;;;;;0.15;0.15;;;;;;;33.68;38.15;99049.47;5093954;28;20020;-74
2021/06/24 09:54:39;;;;;;;1.02;0.98;;;;;;;33.65;38.76;99049.53;5092813;28;20471;-74
2021/06/24 09:57:06;;;;;;;0.05;0.05;;;;;;;33.64;38.88;99046.00;5103011;28;20482;-74
2021/06/24 09:59:39;;;;;;;0.00;0.00;;;;;;;33.63;39.21;99049.19;5089615;28;20020;-74
2021/06/24 10:02:13;;;;;;;0.10;0.10;;;;;;;33.68;38.91;99049.47;5092614;28;20028;-74
2021/06/24 10:04:45;;;;;;;0.15;0.15;;;;;;;33.75;38.64;99047.72;5092409;28;20093;-74
2021/06/24 10:07:13;;;;;;;0.20;0.20;;;;;;;33.78;37.18;99047.63;5092576;28;20056;-74
2021/06/24 10:09:43;;;;;;;0.03;0.03;;;;;;;33.71;38.05;99033.16;5107279;28;20043;-74
2021/06/24 10:12:14;;;;;;;0.10;0.10;;;;;;;33.63;37.20;99035.31;5092513;28;20039;-74
2021/06/24 10:14:40;;;;;;;0.05;0.05;;;;;;;33.57;38.17;99032.31;5074005;28;20035;-74
2021/06/24 10:17:08;;;;;;;4.20;1.13;;;;;;;33.42;38.34;99031.09;5092673;28;20035;-74
2021/06/24 10:19:42;;;;;;;0.20;0.20;;;;;;;33.37;38.02;99043.47;5084720;28;20039;-74
2021/06/24 10:22:28;;;;;;;1.10;1.00;;;;;;;33.31;38.65;99039.66;5085401;28;20525;-74
2021/06/24 10:25:09;;;;;;;0.60;0.60;;;;;;;33.19;37.94;99030.00;5087203;28;20060;-74
2021/06/24 10:27:37;;;;;;;0.50;0.50;;;;;;;33.15;37.78;99032.06;5077815;28;20025;-74
2021/06/24 10:30:13;;;;;;;1.15;1.08;;;;;;;33.03;38.18;99026.00;5081000;28;20483;-74
2021/06/24 10:32:40;;;;;;;0.15;0.15;;;;;;;33.00;38.13;99032.38;5090607;28;20410;-75
2021/06/24 10:35:07;;;;;;;;;;;;;;;33.02;37.60;99029.19;5100257;28;20454;-74
2021/06/24 10:37:34;;;;;;;0.65;0.65;;;;;;;32.94;36.60;99020.25;5072690;28;20303;-74
2021/06/24 10:40:26;;;;;;;0.15;0.08;;;;;;;32.98;37.71;99026.53;5071836;28;20157;-74
2021/06/24 10:42:56;;;;;;;0.10;0.10;;;;;;;32.89;36.02;99034.63;5071489;28;20394;-73
2021/06/24 10:45:24;;;;;;;0.25;0.25;;;;;;;32.80;36.88;99018.59;5083380;28;20023;-74
2021/06/24 10:47:49;;;;;;;0.40;0.40;;;;;;;32.82;37.29;99020.94;5091472;28;20218;-74
2021/06/24 10:50:27;;;;;;;1.15;1.10;;;;;;;32.84;38.38;99015.75;5091663;28;20506;-73
2021/06/24 10:53:16;;;;;;;0.57;0.57;;;;;;;32.89;37.75;99018.00;5090637;28;20032;-74
2021/06/24 10:55:46;;;;;;;0.68;0.50;;;;;;;32.93;38.41;99012.38;5059681;28;20040;-74
2021/06/24 10:58:18;;;;;;;0.43;0.43;;;;;;;33.00;38.08;99003.91;5091644;28;20043;-74
2021/06/24 11:00:53;;;;;;;0.50;0.50;;;;;;;33.02;36.55;99001.47;5091321;28;20031;-74
2021/06/24 11:03:41;;;;;;;1.10;0.52;;;;;;;33.07;37.47;99011.28;5089501;28;20028;-74
2021/06/24 11:06:09;;;;;;;0.82;0.82;;;;;;;33.10;38.70;99011.19;5075979;28;20040;-74
2021/06/24 11:08:43;;;;;;;0.00;0.00;;;;;;;33.14;37.04;99008.34;5085346;28;20039;-74
2021/06/24 11:11:14;;;;;;;0.15;0.15;;;;;;;33.17;36.64;99005.50;5052925;28;20036;-75
2021/06/24 11:13:49;;;;;;;0.10;0.10;;;;;;;33.23;37.53;99007.75;5071051;28;20024;-74
2021/06/24 11:16:15;;;;;;;0.63;0.63;;;;;;;33.27;37.69;99014.00;5071107;28;20024;-74
2021/06/24 11:18:42;;;;;;;2.03;0.80;;;;;;;33.34;36.25;99006.31;5071087;28;20032;-74
2021/06/24 11:21:13;;;;;;;0.20;0.10;;;;;;;33.41;37.36;98996.25;5091006;28;20035;-73
2021/06/24 11:23:41;;;;;;;0.00;0.00;;;;;;;33.46;37.32;98990.19;5090863;28;20032;-74
2021/06/24 11:26:19;;;;;;;0.30;0.30;;;;;;;33.42;34.95;98998.59;5079094;28;20052;-74
2021/06/24 11:28:48;;;;;;;0.00;0.00;;;;;;;33.36;34.13;98997.56;5070811;28;20024;-74
2021/06/24 11:31:17;;;;;;;0.30;0.30;;;;;;;33.39;35.19;98998.72;5071013;28;20032;-74
2021/06/24 11:34:00;;;;;;;0.52;0.52;;;;;;;33.39;34.88;99002.25;5073439;28;20031;-73
2021/06/24 11:36:25;;;;;;;0.65;0.10;;;;;;;33.42;35.72;99006.91;5091017;28;20036;-74
2021/06/24 11:38:51;;;;;;;0.57;0.57;;;;;;;33.52;36.88;98996.78;5090983;28;20566;-73